createdAt,value
2018-10-07T00:01:19.316Z,91.16
2018-10-07T00:03:47.763Z,89.68
2018-10-07T00:06:16.247Z,89.00
2018-10-07T00:08:44.690Z,89.09
2018-10-07T00:11:13.198Z,89.40
2018-10-07T00:13:41.694Z,89.75
2018-10-07T00:16:10.174Z,89.65
2018-10-07T00:18:38.688Z,89.52
2018-10-07T00:21:07.124Z,89.80
2018-10-07T00:23:35.846Z,89.13
2018-10-07T00:26:04.386Z,88.45
2018-10-07T00:28:32.997Z,88.66
2018-10-07T00:31:01.461Z,87.94
2018-10-07T00:33:29.912Z,87.96
2018-10-07T00:35:58.407Z,88.20
2018-10-07T00:38:26.896Z,88.81
2018-10-07T00:40:55.388Z,89.08
2018-10-07T00:43:23.888Z,88.91
2018-10-07T00:45:52.434Z,89.77
2018-10-07T00:48:20.933Z,88.54
2018-10-07T00:50:49.419Z,88.44
2018-10-07T00:53:17.861Z,88.66
2018-10-07T00:55:46.416Z,89.81
2018-10-07T00:58:14.908Z,89.68
2018-10-07T01:00:43.335Z,89.97
2018-10-07T01:03:11.856Z,90.20
2018-10-07T01:05:40.294Z,89.62
2018-10-07T01:08:08.753Z,89.47
2018-10-07T01:10:37.216Z,89.58
2018-10-07T01:13:05.688Z,89.63
2018-10-07T01:15:34.400Z,90.86
2018-10-07T01:18:02.932Z,90.32
2018-10-07T01:20:31.397Z,90.34
2018-10-07T01:22:59.991Z,90.11
2018-10-07T01:25:28.486Z,89.87
2018-10-07T01:27:56.917Z,89.07
2018-10-07T01:30:25.402Z,89.80
2018-10-07T01:32:55.455Z,91.23
2018-10-07T01:35:24.515Z,90.30
2018-10-07T01:37:53.035Z,89.78
2018-10-07T01:40:21.493Z,90.42
2018-10-07T01:42:49.941Z,90.31
2018-10-07T01:45:18.372Z,89.64
2018-10-07T01:47:46.881Z,88.45
2018-10-07T01:50:15.373Z,88.50
2018-10-07T01:52:43.827Z,88.18
2018-10-07T01:55:12.323Z,87.84
2018-10-07T01:57:40.760Z,89.04
2018-10-07T02:00:09.449Z,89.07
2018-10-07T02:02:37.935Z,89.11
2018-10-07T02:05:06.394Z,89.62
2018-10-07T02:07:34.989Z,88.57
2018-10-07T02:10:03.440Z,87.98
2018-10-07T02:12:31.942Z,88.51
2018-10-07T02:15:00.395Z,89.10
2018-10-07T02:17:28.860Z,89.32
2018-10-07T02:19:58.311Z,89.76
2018-10-07T02:22:26.715Z,89.08
2018-10-07T02:24:55.161Z,89.10
2018-10-07T02:27:23.744Z,89.10
2018-10-07T02:29:52.866Z,89.28
2018-10-07T02:32:21.321Z,89.67
2018-10-07T02:34:49.781Z,89.47
2018-10-07T02:37:18.213Z,89.71
2018-10-07T02:39:46.683Z,89.71
2018-10-07T02:42:15.157Z,90.15
2018-10-07T02:44:43.652Z,90.34
2018-10-07T02:47:12.155Z,91.39
2018-10-07T02:49:41.520Z,90.73
2018-10-07T02:52:10.031Z,91.10
2018-10-07T02:54:39.490Z,91.51
2018-10-07T02:57:07.982Z,90.66
2018-10-07T02:59:36.522Z,91.18
2018-10-07T03:02:04.944Z,92.62
2018-10-07T03:04:33.963Z,92.30
2018-10-07T03:07:02.546Z,93.19
2018-10-07T03:09:31.007Z,93.45
2018-10-07T03:11:59.461Z,94.80
2018-10-07T03:14:27.911Z,95.97
2018-10-07T03:16:57.186Z,96.49
2018-10-07T03:19:25.658Z,95.97
2018-10-07T03:21:54.244Z,96.55
2018-10-07T03:24:22.785Z,96.68
2018-10-07T03:26:51.304Z,97.31
2018-10-07T03:29:20.691Z,98.00
2018-10-07T03:31:49.150Z,98.01
2018-10-07T03:34:18.354Z,97.31
2018-10-07T03:36:46.919Z,95.90
2018-10-07T03:39:16.395Z,96.60
2018-10-07T03:41:44.956Z,95.21
2018-10-07T03:44:13.408Z,94.25
2018-10-07T03:46:41.911Z,93.37
2018-10-07T03:49:10.980Z,93.68
2018-10-07T03:51:39.452Z,94.29
2018-10-07T03:54:08.568Z,93.32
2018-10-07T03:56:37.776Z,91.46
2018-10-07T03:59:06.339Z,93.49
2018-10-07T04:01:34.880Z,93.60
2018-10-07T04:04:03.331Z,93.13
2018-10-07T04:06:31.789Z,93.73
2018-10-07T04:09:00.431Z,92.88
2018-10-07T04:11:28.909Z,94.01
2018-10-07T04:13:57.402Z,94.01
2018-10-07T04:16:26.047Z,94.47
2018-10-07T04:18:54.568Z,94.18
2018-10-07T04:21:23.048Z,92.96
2018-10-07T04:23:51.710Z,93.23
2018-10-07T04:26:20.174Z,92.80
2018-10-07T04:28:48.680Z,91.72
2018-10-07T04:31:17.265Z,93.11
2018-10-07T04:33:45.713Z,93.16
2018-10-07T04:36:15.001Z,92.52
2018-10-07T04:38:43.423Z,92.20
2018-10-07T04:41:11.908Z,92.51
2018-10-07T04:43:40.358Z,92.90
2018-10-07T04:46:08.874Z,92.67
2018-10-07T04:48:37.424Z,91.96
2018-10-07T04:51:06.101Z,91.57
2018-10-07T04:53:35.411Z,93.08
2018-10-07T04:56:04.038Z,92.72
2018-10-07T04:58:32.543Z,92.63
2018-10-07T05:01:02.745Z,92.10
2018-10-07T05:03:31.194Z,92.87
2018-10-07T05:06:00.122Z,93.12
2018-10-07T05:08:28.708Z,93.23
2018-10-07T05:11:02.837Z,93.61
2018-10-07T05:13:36.688Z,93.55
2018-10-07T05:16:05.191Z,93.56
2018-10-07T05:18:33.752Z,93.88
2018-10-07T05:21:02.555Z,93.42
2018-10-07T05:23:30.946Z,94.24
2018-10-07T05:25:59.412Z,95.71
2018-10-07T05:28:27.915Z,95.20
2018-10-07T05:30:56.421Z,95.10
2018-10-07T05:33:25.064Z,95.37
2018-10-07T05:35:54.004Z,95.79
2018-10-07T05:38:30.146Z,96.16
2018-10-07T05:40:58.925Z,96.48
2018-10-07T05:43:27.432Z,96.75
2018-10-07T05:45:56.481Z,97.71
2018-10-07T05:48:24.998Z,97.36
2018-10-07T05:50:54.120Z,97.15
2018-10-07T05:53:27.753Z,95.90
2018-10-07T05:55:56.192Z,95.82
2018-10-07T05:58:25.042Z,94.41
2018-10-07T06:00:55.431Z,94.63
2018-10-07T06:03:38.894Z,95.45
2018-10-07T06:06:08.137Z,94.45
2018-10-07T06:08:36.700Z,92.21
2018-10-07T06:11:05.507Z,93.07
2018-10-07T06:13:34.081Z,93.31
2018-10-07T06:16:02.548Z,93.90
2018-10-07T06:18:30.962Z,94.71
2018-10-07T06:21:00.202Z,93.59
2018-10-07T06:23:28.650Z,94.63
2018-10-07T06:25:57.073Z,93.94
2018-10-07T06:28:25.627Z,93.53
2018-10-07T06:30:54.901Z,94.66
2018-10-07T06:33:23.380Z,93.94
2018-10-07T06:35:51.912Z,94.21
2018-10-07T06:38:21.051Z,94.42
2018-10-07T06:40:49.591Z,95.04
2018-10-07T06:43:18.075Z,95.60
2018-10-07T06:45:46.575Z,95.46
2018-10-07T06:48:15.708Z,95.83
2018-10-07T06:50:44.199Z,95.90
2018-10-07T06:53:12.727Z,95.44
2018-10-07T06:55:41.184Z,95.68
2018-10-07T06:58:09.622Z,96.27
2018-10-07T07:00:38.050Z,95.73
2018-10-07T07:03:06.616Z,95.37
2018-10-07T07:05:35.178Z,95.94
2018-10-07T07:08:04.250Z,94.83
2018-10-07T07:10:32.807Z,94.78
2018-10-07T07:13:01.351Z,94.39
2018-10-07T07:15:30.004Z,95.17
2018-10-07T07:17:58.580Z,94.66
2018-10-07T07:20:27.079Z,94.52
2018-10-07T07:22:56.401Z,94.49
2018-10-07T07:25:24.876Z,93.87
2018-10-07T07:27:54.715Z,94.30
2018-10-07T07:30:23.280Z,93.88
2018-10-07T07:32:51.832Z,93.42
2018-10-07T07:35:20.348Z,94.12
2018-10-07T07:37:48.971Z,94.31
2018-10-07T07:40:17.876Z,94.10
2018-10-07T07:42:46.373Z,94.22
2018-10-07T07:45:15.599Z,92.89
2018-10-07T07:47:44.044Z,93.50
2018-10-07T07:50:12.585Z,92.82
2018-10-07T07:52:41.079Z,91.32
2018-10-07T07:55:09.577Z,90.56
2018-10-07T07:57:38.128Z,88.37
2018-10-07T08:00:06.736Z,88.51
2018-10-07T08:02:35.219Z,88.21
2018-10-07T08:05:03.695Z,86.53
2018-10-07T08:07:32.152Z,87.12
2018-10-07T08:10:01.251Z,86.83
2018-10-07T08:12:29.727Z,86.20
2018-10-07T08:14:58.286Z,84.44
2018-10-07T08:17:27.965Z,84.59
2018-10-07T08:19:56.858Z,82.67
2018-10-07T08:22:25.935Z,83.01
2018-10-07T08:24:54.428Z,83.52
2018-10-07T08:27:23.987Z,81.47
2018-10-07T08:29:52.581Z,80.30
2018-10-07T08:32:21.874Z,80.60
2018-10-07T08:34:50.460Z,79.89
2018-10-07T08:37:18.903Z,80.07
2018-10-07T08:39:47.447Z,79.43
2018-10-07T08:42:15.954Z,79.65
2018-10-07T08:44:44.470Z,78.71
2018-10-07T08:47:13.664Z,77.41
2018-10-07T08:49:42.262Z,79.04
2018-10-07T08:52:10.771Z,77.88
2018-10-07T08:54:39.233Z,77.58
2018-10-07T08:57:08.779Z,77.17
2018-10-07T08:59:37.848Z,77.58
2018-10-07T09:02:06.974Z,76.61
2018-10-07T09:04:35.380Z,73.37
2018-10-07T09:07:04.079Z,71.90
2018-10-07T09:09:32.667Z,70.37
2018-10-07T09:12:01.322Z,70.32
2018-10-07T09:14:29.863Z,69.54
2018-10-07T09:16:58.409Z,68.17
2018-10-07T09:19:26.909Z,69.72
2018-10-07T09:21:55.988Z,69.02
2018-10-07T09:24:24.962Z,67.94
2018-10-07T09:26:53.679Z,71.30
2018-10-07T09:29:24.201Z,70.55
2018-10-07T09:31:53.106Z,68.81
2018-10-07T09:34:22.868Z,67.68
2018-10-07T09:36:52.016Z,63.98
2018-10-07T09:39:21.053Z,69.89
2018-10-07T09:41:50.538Z,64.83
2018-10-07T09:44:20.288Z,64.15
2018-10-07T09:46:48.909Z,63.69
2018-10-07T09:49:17.613Z,62.78
2018-10-07T09:51:46.499Z,60.92
2018-10-07T09:54:15.283Z,60.12
2018-10-07T09:56:44.155Z,61.27
2018-10-07T09:59:13.417Z,62.12
2018-10-07T10:01:41.975Z,63.26
2018-10-07T10:04:10.558Z,60.46
2018-10-07T10:06:39.143Z,57.93
2018-10-07T10:09:08.948Z,58.52
2018-10-07T10:11:37.550Z,55.86
2018-10-07T10:14:05.995Z,56.80
2018-10-07T10:16:46.520Z,57.25
2018-10-07T10:19:25.985Z,60.14
2018-10-07T10:22:09.402Z,57.46
2018-10-07T10:24:48.868Z,57.79
2018-10-07T10:27:31.826Z,58.04
2018-10-07T10:30:08.362Z,62.41
2018-10-07T10:32:46.810Z,59.13
2018-10-07T10:35:22.078Z,59.54
2018-10-07T10:38:03.311Z,60.74
2018-10-07T10:40:37.419Z,61.03
2018-10-07T10:43:16.825Z,56.71
2018-10-07T10:47:54.428Z,62.48
2018-10-07T10:51:04.435Z,59.34
2018-10-07T10:53:46.972Z,58.01
2018-10-07T10:56:25.295Z,62.74
2018-10-07T11:02:11.644Z,61.27
2018-10-07T11:05:17.991Z,59.63
2018-10-07T11:07:56.370Z,60.47
2018-10-07T11:11:02.247Z,58.42
2018-10-07T11:13:34.255Z,59.91
2018-10-07T11:16:10.597Z,57.20
2018-10-07T11:19:26.523Z,56.71
2018-10-07T11:22:09.509Z,56.13
2018-10-07T11:24:44.996Z,58.45
2018-10-07T11:28:23.576Z,58.96
2018-10-07T11:31:03.676Z,58.75
2018-10-07T11:34:10.180Z,56.74
2018-10-07T11:37:14.287Z,59.34
2018-10-07T11:41:04.614Z,60.67
2018-10-07T11:43:51.586Z,64.07
2018-10-07T11:48:36.908Z,60.60
2018-10-07T11:51:14.964Z,64.43
2018-10-07T11:53:47.380Z,62.76
2018-10-07T11:56:16.882Z,64.19
2018-10-07T11:58:45.346Z,64.46
2018-10-07T12:01:13.968Z,65.83
2018-10-07T12:03:42.430Z,65.13
2018-10-07T12:06:10.943Z,65.02
2018-10-07T12:08:39.530Z,65.94
2018-10-07T12:11:08.048Z,65.13
2018-10-07T12:13:36.685Z,65.82
2018-10-07T12:16:05.644Z,65.06
2018-10-07T12:18:34.511Z,63.48
2018-10-07T12:21:03.075Z,65.76
2018-10-07T12:23:31.574Z,63.69
2018-10-07T12:26:00.124Z,61.46
2018-10-07T12:28:28.598Z,61.22
2018-10-07T12:30:57.267Z,62.96
2018-10-07T12:33:25.974Z,63.01
2018-10-07T12:35:55.269Z,61.89
2018-10-07T12:38:24.041Z,62.71
2018-10-07T12:40:52.723Z,61.27
2018-10-07T12:43:21.255Z,60.86
2018-10-07T12:45:49.786Z,61.55
2018-10-07T12:48:18.315Z,61.49
2018-10-07T12:50:46.807Z,62.28
2018-10-07T12:53:15.540Z,60.98
2018-10-07T12:55:44.027Z,61.15
2018-10-07T12:58:13.888Z,61.37
2018-10-07T13:00:42.667Z,60.58
2018-10-07T13:03:11.415Z,60.80
2018-10-07T13:05:40.131Z,61.89
2018-10-07T13:08:08.968Z,61.38
2018-10-07T13:10:38.763Z,63.34
2018-10-07T13:13:07.333Z,62.68
2018-10-07T13:15:35.872Z,63.80
2018-10-07T13:18:04.411Z,63.85
2018-10-07T13:20:33.152Z,63.52
2018-10-07T13:23:01.759Z,61.85
2018-10-07T13:25:30.438Z,62.60
2018-10-07T13:27:59.680Z,63.62
2018-10-07T13:30:28.396Z,62.14
2018-10-07T13:32:57.036Z,62.38
2018-10-07T13:35:25.596Z,62.67
2018-10-07T13:37:54.625Z,63.63
2018-10-07T13:40:24.073Z,65.27
2018-10-07T13:42:52.695Z,66.35
2018-10-07T13:45:21.500Z,66.31
2018-10-07T13:47:50.083Z,66.33
2018-10-07T13:50:18.849Z,68.48
2018-10-07T13:52:47.292Z,68.16
2018-10-07T13:55:15.933Z,68.75
2018-10-07T13:57:44.518Z,69.12
2018-10-07T14:00:13.128Z,69.42
2018-10-07T14:02:41.624Z,69.12
2018-10-07T14:05:10.293Z,69.29
2018-10-07T14:07:38.757Z,70.02
2018-10-07T14:10:07.376Z,69.99
2018-10-07T14:12:35.900Z,70.25
2018-10-07T14:15:04.512Z,69.88
2018-10-07T14:17:34.204Z,69.99
2018-10-07T14:20:02.677Z,69.19
2018-10-07T14:22:31.171Z,69.48
2018-10-07T14:25:00.005Z,69.45
2018-10-07T14:27:28.580Z,68.54
2018-10-07T14:29:57.071Z,68.94
2018-10-07T14:32:25.575Z,68.14
2018-10-07T14:34:54.155Z,69.62
2018-10-07T14:37:22.708Z,68.66
2018-10-07T14:39:51.191Z,69.13
2018-10-07T14:42:19.682Z,68.78
2018-10-07T14:44:48.217Z,69.20
2018-10-07T14:47:16.919Z,69.52
2018-10-07T14:49:46.274Z,69.81
2018-10-07T14:52:14.993Z,69.21
2018-10-07T14:55:14.732Z,69.55
2018-10-07T14:57:43.353Z,70.88
2018-10-07T15:00:11.832Z,71.86
2018-10-07T15:02:40.398Z,73.04
2018-10-07T15:05:09.023Z,72.65
2018-10-07T15:07:37.559Z,72.87
2018-10-07T15:10:06.597Z,72.81
2018-10-07T15:12:35.043Z,73.23
2018-10-07T15:15:03.538Z,73.67
2018-10-07T15:17:32.077Z,73.16
2018-10-07T15:20:01.040Z,72.49
2018-10-07T15:22:30.316Z,72.10
2018-10-07T15:24:58.777Z,72.52
2018-10-07T15:27:27.355Z,72.38
2018-10-07T15:29:57.242Z,73.25
2018-10-07T15:32:25.718Z,72.89
2018-10-07T15:34:54.240Z,72.92
2018-10-07T15:37:23.113Z,72.61
2018-10-07T15:39:51.582Z,73.13
2018-10-07T15:42:20.471Z,73.91
2018-10-07T15:44:48.996Z,74.97
2018-10-07T15:47:17.500Z,74.32
2018-10-07T15:49:46.103Z,75.36
2018-10-07T15:52:14.908Z,74.60
2018-10-07T15:54:43.356Z,75.27
2018-10-07T15:57:11.880Z,76.08
2018-10-07T15:59:40.445Z,75.71
2018-10-07T16:02:08.945Z,75.82
2018-10-07T16:04:37.436Z,76.31
2018-10-07T16:07:05.940Z,74.96
2018-10-07T16:09:34.619Z,75.07
2018-10-07T16:12:04.019Z,74.86
2018-10-07T16:14:32.909Z,75.96
2018-10-07T16:17:01.858Z,76.93
2018-10-07T16:19:30.927Z,76.83
2018-10-07T16:21:59.583Z,77.32
2018-10-07T16:24:28.182Z,77.61
2018-10-07T16:26:56.617Z,77.33
2018-10-07T16:29:25.190Z,78.48
2018-10-07T16:31:54.923Z,77.87
2018-10-07T16:34:23.656Z,78.14
2018-10-07T16:36:52.117Z,78.55
2018-10-07T16:39:20.655Z,78.62
2018-10-07T16:41:49.433Z,79.75
2018-10-07T16:44:18.445Z,79.46
2018-10-07T16:46:47.627Z,80.09
2018-10-07T16:49:16.200Z,79.91
2018-10-07T16:51:44.702Z,80.58
2018-10-07T16:54:15.018Z,80.98
2018-10-07T16:56:43.621Z,80.42
2018-10-07T16:59:12.237Z,80.90
2018-10-07T17:01:40.875Z,80.50
2018-10-07T17:04:09.415Z,80.94
2018-10-07T17:06:37.840Z,80.71
2018-10-07T17:09:08.354Z,80.23
2018-10-07T17:11:36.809Z,80.24
2018-10-07T17:14:05.344Z,80.38
2018-10-07T17:16:34.683Z,80.76
2018-10-07T17:19:03.279Z,80.77
2018-10-07T17:21:31.770Z,82.57
2018-10-07T17:24:00.653Z,83.31
2018-10-07T17:26:29.192Z,83.12
2018-10-07T17:28:57.824Z,83.11
2018-10-07T17:31:28.385Z,83.48
2018-10-07T17:33:58.317Z,83.95
2018-10-07T17:36:26.873Z,83.86
2018-10-07T17:38:55.419Z,83.94
2018-10-07T17:41:23.906Z,84.11
2018-10-07T17:43:52.949Z,84.10
2018-10-07T17:46:21.493Z,84.64
2018-10-07T17:48:50.007Z,84.78
2018-10-07T17:51:18.452Z,85.16
2018-10-07T17:53:47.691Z,85.02
2018-10-07T17:56:17.189Z,84.92
2018-10-07T17:58:45.844Z,85.17
2018-10-07T18:01:14.608Z,85.54
2018-10-07T18:03:43.716Z,85.25
2018-10-07T18:06:12.280Z,85.56
2018-10-07T18:08:40.862Z,85.87
2018-10-07T18:11:09.429Z,85.33
2018-10-07T18:13:38.246Z,85.56
2018-10-07T18:16:06.931Z,84.82
2018-10-07T18:18:35.569Z,85.40
2018-10-07T18:21:04.186Z,84.26
2018-10-07T18:23:32.897Z,83.75
2018-10-07T18:26:01.410Z,83.67
2018-10-07T18:28:29.958Z,84.51
2018-10-07T18:30:58.490Z,84.29
2018-10-07T18:33:26.952Z,84.08
2018-10-07T18:35:55.417Z,84.55
2018-10-07T18:38:24.553Z,84.53
2018-10-07T18:40:53.521Z,84.57
2018-10-07T18:43:22.917Z,84.41
2018-10-07T18:45:51.824Z,84.46
2018-10-07T18:48:20.454Z,85.05
2018-10-07T18:50:48.901Z,84.16
2018-10-07T18:53:17.372Z,84.77
2018-10-07T18:55:45.804Z,85.35
2018-10-07T18:58:15.191Z,84.79
2018-10-07T19:00:43.722Z,85.62
2018-10-07T19:03:12.193Z,85.31
2018-10-07T19:05:40.643Z,85.16
2018-10-07T19:08:09.032Z,84.98
2018-10-07T19:10:37.471Z,85.90
2018-10-07T19:13:06.030Z,85.60
2018-10-07T19:15:34.737Z,85.84
2018-10-07T19:18:03.535Z,86.30
2018-10-07T19:20:31.978Z,86.31
2018-10-07T19:23:01.786Z,86.65
2018-10-07T19:25:30.496Z,87.62
2018-10-07T19:27:59.427Z,87.01
2018-10-07T19:30:27.870Z,87.28
2018-10-07T19:32:57.284Z,87.49
2018-10-07T19:35:25.965Z,87.55
2018-10-07T19:37:54.662Z,87.28
2018-10-07T19:40:23.070Z,87.72
2018-10-07T19:42:51.536Z,88.13
2018-10-07T19:45:20.056Z,87.79
2018-10-07T19:47:48.580Z,87.33
2018-10-07T19:50:17.033Z,87.61
2018-10-07T19:52:46.041Z,87.96
2018-10-07T19:55:14.475Z,87.96
2018-10-07T19:57:42.891Z,88.55
2018-10-07T20:00:11.956Z,88.90
2018-10-07T20:02:40.474Z,87.90
2018-10-07T20:05:09.432Z,88.39
2018-10-07T20:07:37.948Z,89.79
2018-10-07T20:10:06.697Z,89.57
2018-10-07T20:12:35.420Z,89.96
2018-10-07T20:15:03.925Z,90.31
2018-10-07T20:17:32.441Z,90.42
2018-10-07T20:20:01.580Z,90.72
2018-10-07T20:22:30.056Z,89.85
2018-10-07T20:24:58.716Z,90.09
2018-10-07T20:27:27.289Z,91.53
2018-10-07T20:29:56.425Z,91.18
2018-10-07T20:32:25.181Z,92.03
2018-10-07T20:34:53.891Z,91.40
2018-10-07T20:37:22.604Z,91.26
2018-10-07T20:39:51.120Z,91.13
2018-10-07T20:42:19.573Z,91.15
2018-10-07T20:44:47.980Z,91.38
2018-10-07T20:47:16.947Z,91.93
2018-10-07T20:49:46.218Z,91.70
2018-10-07T20:52:15.078Z,91.25
2018-10-07T20:54:43.624Z,91.58
2018-10-07T20:57:12.147Z,92.14
2018-10-07T20:59:40.635Z,91.49
2018-10-07T21:02:09.148Z,92.31
2018-10-07T21:04:37.615Z,92.18
2018-10-07T21:07:06.110Z,92.31
2018-10-07T21:09:35.469Z,93.00
2018-10-07T21:12:03.967Z,93.78
2018-10-07T21:14:32.458Z,92.99
2018-10-07T21:17:00.932Z,93.61
2018-10-07T21:19:29.397Z,92.27
2018-10-07T21:21:57.881Z,92.08
2018-10-07T21:24:26.361Z,91.00
2018-10-07T21:26:54.850Z,91.17
2018-10-07T21:29:23.349Z,90.15
2018-10-07T21:31:51.853Z,89.15
2018-10-07T21:34:20.341Z,88.81
2018-10-07T21:36:48.879Z,88.56
2018-10-07T21:39:17.306Z,87.31
2018-10-07T21:41:46.498Z,88.60
2018-10-07T21:44:15.357Z,90.61
2018-10-07T21:46:43.865Z,89.56
2018-10-07T21:49:12.312Z,90.01
2018-10-07T21:51:40.727Z,89.62
2018-10-07T21:54:09.176Z,89.90
2018-10-07T21:56:37.604Z,90.21
2018-10-07T21:59:06.683Z,89.41
2018-10-07T22:01:35.160Z,88.17
2018-10-07T22:04:03.604Z,87.50
2018-10-07T22:06:32.046Z,89.61
2018-10-07T22:09:00.545Z,90.03
2018-10-07T22:11:29.985Z,90.99
2018-10-07T22:13:58.463Z,89.00
2018-10-07T22:16:26.899Z,89.76
2018-10-07T22:18:55.917Z,89.56
2018-10-07T22:21:24.569Z,90.09
2018-10-07T22:23:53.012Z,89.63
2018-10-07T22:26:21.527Z,89.69
2018-10-07T22:28:49.971Z,90.34
2018-10-07T22:31:18.439Z,88.64
2018-10-07T22:33:46.904Z,89.69
2018-10-07T22:36:15.455Z,89.44
2018-10-07T22:38:43.915Z,88.75
2018-10-07T22:41:12.981Z,88.19
2018-10-07T22:43:41.513Z,88.33
2018-10-07T22:46:09.964Z,89.67
2018-10-07T22:48:38.441Z,90.13
2018-10-07T22:51:06.920Z,90.15
2018-10-07T22:53:35.407Z,89.25
2018-10-07T22:56:03.824Z,88.57
2018-10-07T22:58:32.305Z,89.30
2018-10-07T23:01:00.832Z,89.37
2018-10-07T23:03:29.712Z,89.27
2018-10-07T23:05:58.309Z,89.12
2018-10-07T23:08:26.763Z,89.37
2018-10-07T23:10:55.420Z,89.10
2018-10-07T23:13:24.635Z,89.20
2018-10-07T23:15:53.144Z,89.25
2018-10-07T23:18:22.291Z,89.61
2018-10-07T23:20:50.768Z,90.25
2018-10-07T23:23:19.289Z,89.26
2018-10-07T23:25:48.758Z,89.12
2018-10-07T23:28:17.270Z,88.98
2018-10-07T23:30:45.755Z,87.98
2018-10-07T23:33:14.236Z,88.18
2018-10-07T23:35:42.759Z,88.62
2018-10-07T23:38:11.207Z,88.56
2018-10-07T23:40:40.024Z,88.71
2018-10-07T23:43:08.448Z,88.82
2018-10-07T23:45:36.962Z,88.45
2018-10-07T23:48:05.431Z,88.08
2018-10-07T23:50:34.507Z,88.29
2018-10-07T23:53:02.948Z,87.54
2018-10-07T23:55:31.430Z,88.96
2018-10-07T23:58:00.158Z,89.15
